Time;durP1;ratioP1;P1;durP2;ratioP2;P2;SDS_P1;SDS_P2;PMS_P1;PMS_P2;Temp;Humidity;BMP_temperature;BMP_pressure;BME280_temperature;BME280_humidity;BME280_pressure;Samples;Min_cycle;Max_cycle;Signal;HPM_P1;HPM_P2
2021/12/19 00:02:30;;;;;;;3.63;2.80;;;;;;;14.14;30.18;97860.00;4983399;28;20031;-29
2021/12/19 00:10:26;;;;;;;4.97;2.75;;;;;;;14.17;30.36;97862.69;4987965;28;20528;-29
2021/12/19 00:12:52;;;;;;;4.97;2.42;;;;;;;14.15;29.69;97867.78;4991590;28;20034;-29
2021/12/19 00:15:18;;;;;;;3.75;2.65;;;;;;;14.18;30.28;97861.50;4990607;28;20039;-29
2021/12/19 00:17:44;;;;;;;4.40;2.58;;;;;;;14.21;29.83;97870.81;4994516;28;20036;-29
2021/12/19 00:20:09;;;;;;;3.70;2.40;;;;;;;14.14;30.37;97860.78;4975914;28;20132;-29
2021/12/19 00:22:35;;;;;;;4.18;2.58;;;;;;;14.17;30.20;97856.47;4992907;28;20068;-29
2021/12/19 00:25:01;;;;;;;5.70;2.45;;;;;;;14.16;30.08;97846.75;5018611;28;20026;-29
2021/12/19 00:27:26;;;;;;;4.03;2.60;;;;;;;14.22;30.20;97843.09;5033491;28;20037;-29
2021/12/19 00:29:52;;;;;;;4.90;2.63;;;;;;;14.15;29.96;97845.19;5033602;28;20025;-29
2021/12/19 00:32:17;;;;;;;5.72;2.50;;;;;;;14.14;30.11;97832.72;5035557;28;20049;-29
2021/12/19 00:34:43;;;;;;;3.88;2.25;;;;;;;14.17;29.97;97834.63;5035060;28;20041;-29
2021/12/19 00:37:10;;;;;;;5.78;2.58;;;;;;;14.21;30.25;97838.84;5034633;28;20104;-29
2021/12/19 00:39:35;;;;;;;3.63;2.15;;;;;;;14.19;29.71;97830.31;5035744;28;20483;-29
2021/12/19 00:42:04;;;;;;;4.22;2.20;;;;;;;14.12;30.22;97824.19;5035493;28;20086;-29
2021/12/19 00:44:32;;;;;;;3.72;2.30;;;;;;;14.14;29.76;97830.78;5035101;28;20030;-29
2021/12/19 00:47:05;;;;;;;4.18;2.17;;;;;;;14.17;30.07;97824.50;5035311;28;20055;-29
2021/12/19 00:49:31;;;;;;;3.13;1.90;;;;;;;14.14;30.10;97822.59;5035546;28;20025;-29
2021/12/19 00:51:56;;;;;;;4.03;1.88;;;;;;;14.09;29.93;97820.34;5035308;28;20037;-29
2021/12/19 00:54:22;;;;;;;3.05;1.83;;;;;;;14.15;29.92;97823.38;5035217;28;20033;-29
2021/12/19 00:56:49;;;;;;;3.85;2.28;;;;;;;14.09;30.08;97820.34;5033761;28;20100;-29
2021/12/19 00:59:16;;;;;;;2.58;1.80;;;;;;;14.18;29.99;97823.31;5035148;28;20030;-29
2021/12/19 01:01:43;;;;;;;4.18;1.80;;;;;;;14.17;29.99;97826.44;5034923;28;20535;-29
2021/12/19 01:04:11;;;;;;;2.92;1.70;;;;;;;14.17;29.93;97823.72;5035092;28;20044;-29
2021/12/19 01:06:38;;;;;;;2.90;1.50;;;;;;;14.14;30.02;97830.00;5034562;28;20357;-29
2021/12/19 01:09:04;;;;;;;3.55;1.45;;;;;;;14.11;30.09;97822.66;5034618;28;20032;-29
2021/12/19 01:11:30;;;;;;;3.10;1.88;;;;;;;14.09;30.15;97822.31;5034771;28;20101;-29
2021/12/19 01:13:56;;;;;;;2.75;1.90;;;;;;;14.13;29.92;97820.28;5033607;28;20029;-29
2021/12/19 01:16:22;;;;;;;4.05;1.85;;;;;;;14.13;30.22;97821.06;5034308;28;20017;-29
2021/12/19 01:18:48;;;;;;;2.22;1.33;;;;;;;14.09;30.16;97819.59;5034475;28;20478;-29
2021/12/19 01:21:14;;;;;;;2.58;1.30;;;;;;;14.09;29.87;97820.34;5034811;28;20108;-29
2021/12/19 01:23:40;;;;;;;2.22;1.52;;;;;;;14.12;29.90;97811.31;5034342;28;20380;-31
2021/12/19 01:26:05;;;;;;;2.38;1.60;;;;;;;14.11;30.17;97817.97;5034769;28;20025;-30
2021/12/19 01:28:31;;;;;;;2.38;1.13;;;;;;;14.16;29.89;97814.00;5034570;28;20543;-30
2021/12/19 01:30:57;;;;;;;2.90;1.40;;;;;;;14.17;29.92;97807.34;5033134;28;20383;-30
2021/12/19 01:33:22;;;;;;;2.17;1.25;;;;;;;14.16;30.10;97809.31;5034341;28;20021;-30
2021/12/19 01:35:48;;;;;;;2.47;1.27;;;;;;;14.10;30.32;97805.50;5033594;28;20025;-29
2021/12/19 01:38:13;;;;;;;2.40;1.33;;;;;;;14.08;29.89;97793.50;5034395;28;20056;-29
2021/12/19 01:40:39;;;;;;;1.23;1.05;;;;;;;14.15;30.08;97796.09;5034130;28;20048;-29
2021/12/19 01:43:05;;;;;;;1.77;1.10;;;;;;;14.09;29.68;97795.03;5034232;28;20451;-29
2021/12/19 01:45:38;;;;;;;2.25;1.20;;;;;;;14.08;30.00;97790.75;5034094;28;20030;-29
2021/12/19 01:48:09;;;;;;;2.35;1.63;;;;;;;14.09;30.11;97781.41;5033990;28;20021;-29
2021/12/19 01:50:35;;;;;;;1.45;1.10;;;;;;;14.12;30.06;97778.59;5034122;28;20029;-29
2021/12/19 01:53:03;;;;;;;1.50;1.02;;;;;;;14.14;30.13;97780.91;5033998;28;20036;-29
2021/12/19 01:55:29;;;;;;;2.35;1.30;;;;;;;14.10;29.88;97782.91;5034131;28;20091;-29
2021/12/19 01:57:54;;;;;;;1.40;1.00;;;;;;;14.07;29.89;97773.63;5033988;28;20464;-29
2021/12/19 02:00:23;;;;;;;2.65;1.10;;;;;;;14.09;30.39;97770.47;5033648;28;20088;-29
2021/12/19 02:02:49;;;;;;;2.08;1.20;;;;;;;14.15;29.94;97779.72;5033856;28;20022;-29
2021/12/19 02:05:15;;;;;;;2.53;1.40;;;;;;;14.12;30.06;97769.63;5033829;28;20033;-29
2021/12/19 02:07:46;;;;;;;2.03;1.30;;;;;;;14.10;29.87;97761.09;5033994;28;20021;-29
2021/12/19 02:10:12;;;;;;;3.15;1.15;;;;;;;14.12;30.18;97766.91;5034072;28;20098;-29
2021/12/19 02:12:38;;;;;;;2.35;1.15;;;;;;;14.12;29.72;97764.94;5033720;28;20053;-29
2021/12/19 02:15:04;;;;;;;2.38;1.40;;;;;;;14.09;29.90;97765.03;5033661;28;20079;-29
2021/12/19 02:17:30;;;;;;;1.67;1.08;;;;;;;14.20;29.87;97765.59;5033893;28;20079;-29
2021/12/19 02:19:57;;;;;;;1.98;1.00;;;;;;;14.05;30.12;97764.31;5033868;28;20021;-29
2021/12/19 02:22:22;;;;;;;1.80;1.02;;;;;;;14.07;29.97;97767.41;5033701;28;20100;-29
2021/12/19 02:24:48;;;;;;;1.70;0.93;;;;;;;14.06;29.94;97755.72;5033501;28;20112;-29
2021/12/19 02:27:13;;;;;;;1.27;0.88;;;;;;;14.08;30.24;97758.03;5033353;28;20071;-29
2021/12/19 02:29:39;;;;;;;2.65;1.17;;;;;;;14.08;29.72;97753.34;5031330;28;20083;-29
2021/12/19 02:32:06;;;;;;;2.00;1.05;;;;;;;14.05;29.80;97753.41;5031635;28;20357;-29
2021/12/19 02:34:38;;;;;;;1.70;1.20;;;;;;;14.05;30.29;97758.84;5033170;28;20424;-29
2021/12/19 02:37:13;;;;;;;2.58;1.15;;;;;;;14.06;30.30;97755.72;5033580;28;20021;-29
2021/12/19 02:50:37;;;;;;;2.33;1.23;;;;;;;14.04;30.43;97747.16;5033613;28;20445;-29
2021/12/19 02:53:03;;;;;;;1.25;0.88;;;;;;;14.03;30.08;97751.09;5033198;28;20487;-29
2021/12/19 02:55:29;;;;;;;1.75;1.05;;;;;;;14.08;30.40;97752.56;5033162;28;20056;-29
2021/12/19 02:57:55;;;;;;;1.60;1.08;;;;;;;14.00;30.24;97739.03;5033237;28;20100;-29
2021/12/19 03:00:24;;;;;;;1.05;0.70;;;;;;;14.07;30.01;97740.13;5031751;28;20515;-29
2021/12/19 03:02:50;;;;;;;1.83;0.98;;;;;;;14.06;30.32;97742.06;5033118;28;20033;-29
2021/12/19 03:05:16;;;;;;;1.77;0.90;;;;;;;14.11;29.94;97736.13;5033191;28;20364;-29
2021/12/19 03:07:43;;;;;;;1.52;0.82;;;;;;;14.12;30.20;97736.88;5031649;28;20032;-29
2021/12/19 03:18:17;;;;;;;1.75;1.13;;;;;;;13.94;29.97;97718.13;5033237;28;20456;-29
2021/12/19 03:20:43;;;;;;;1.15;0.90;;;;;;;14.03;30.18;97726.53;5032987;28;20104;-29
2021/12/19 03:23:13;;;;;;;1.50;0.80;;;;;;;14.03;29.92;97724.56;5033003;28;20029;-29
2021/12/19 03:25:39;;;;;;;1.40;1.10;;;;;;;14.03;29.90;97719.13;5032844;28;20392;-29
2021/12/19 03:28:08;;;;;;;1.50;0.90;;;;;;;14.10;30.09;97718.22;5032777;28;20021;-29
2021/12/19 03:30:34;;;;;;;1.27;0.88;;;;;;;14.10;30.01;97726.41;5033044;28;20017;-29
2021/12/19 03:33:00;;;;;;;2.30;1.00;;;;;;;14.03;30.02;97718.34;5032991;28;20064;-29
2021/12/19 03:35:27;;;;;;;1.85;1.10;;;;;;;14.08;30.03;97717.88;5033094;28;20060;-29
2021/12/19 03:37:53;;;;;;;1.30;0.80;;;;;;;14.07;30.21;97707.38;5031358;28;20454;-29
2021/12/19 03:40:34;;;;;;;1.52;0.98;;;;;;;14.06;29.96;97711.28;5032936;28;20048;-29
2021/12/19 03:43:00;;;;;;;1.48;0.85;;;;;;;14.03;29.89;97707.44;5033090;28;20090;-29
2021/12/19 03:45:26;;;;;;;2.63;1.30;;;;;;;14.02;29.92;97700.44;5032715;28;20021;-29
2021/12/19 03:47:52;;;;;;;1.73;0.80;;;;;;;14.08;30.03;97698.78;5032687;28;20140;-29
2021/12/19 03:50:21;;;;;;;2.03;1.00;;;;;;;14.09;29.93;97699.56;5032895;28;20457;-29
2021/12/19 03:52:47;;;;;;;1.48;0.98;;;;;;;14.05;29.87;97693.38;5032773;28;20021;-29
2021/12/19 03:55:13;;;;;;;1.90;0.90;;;;;;;14.08;29.87;97692.56;5032655;28;20467;-29
2021/12/19 03:57:39;;;;;;;1.50;1.00;;;;;;;14.05;30.26;97685.22;5032875;28;20029;-29
2021/12/19 04:00:10;;;;;;;1.40;1.00;;;;;;;14.02;29.76;97693.03;5034342;28;20045;-29
2021/12/19 04:02:36;;;;;;;1.33;0.90;;;;;;;14.07;30.08;97691.78;5036171;28;20434;-29
2021/12/19 04:05:02;;;;;;;1.33;0.85;;;;;;;14.10;29.78;97680.00;5036096;28;20022;-29
2021/12/19 04:07:28;;;;;;;1.98;0.95;;;;;;;14.05;30.00;97677.78;5036000;28;20028;-29
2021/12/19 04:09:54;;;;;;;1.40;0.90;;;;;;;14.02;29.74;97684.84;5035978;28;20025;-29
2021/12/19 04:12:28;;;;;;;1.45;0.90;;;;;;;14.06;30.01;97686.75;5035963;28;20116;-29
2021/12/19 04:14:55;;;;;;;1.70;0.88;;;;;;;14.01;30.16;97680.59;5035994;28;20033;-29
2021/12/19 04:17:21;;;;;;;1.55;1.10;;;;;;;14.02;30.06;97684.84;5035823;28;20483;-29
2021/12/19 04:19:46;;;;;;;2.47;0.82;;;;;;;14.04;29.82;97676.25;5035672;28;20091;-29
2021/12/19 04:22:12;;;;;;;2.42;1.10;;;;;;;14.10;29.85;97681.97;5035891;28;20444;-29
2021/12/19 04:24:37;;;;;;;0.95;0.80;;;;;;;14.03;29.66;97672.75;5034697;28;20029;-29
2021/12/19 04:27:03;;;;;;;0.90;0.65;;;;;;;14.01;29.54;97669.66;5035726;28;20033;-29
2021/12/19 04:29:29;;;;;;;1.55;0.93;;;;;;;14.04;29.56;97668.06;5035891;28;20028;-29
2021/12/19 04:31:55;;;;;;;1.17;0.80;;;;;;;14.06;29.86;97665.69;5035622;28;20018;-29
2021/12/19 04:34:21;;;;;;;1.20;0.80;;;;;;;13.98;29.59;97664.28;5035545;28;20025;-29
2021/12/19 04:36:52;;;;;;;1.23;0.98;;;;;;;13.94;29.70;97660.88;5034370;28;20060;-29
2021/12/19 04:53:14;;;;;;;1.65;0.95;;;;;;;13.99;29.80;97646.72;5013406;28;20404;-29
2021/12/19 04:55:58;;;;;;;1.60;0.70;;;;;;;14.03;30.04;97648.19;5012717;28;20065;-29
2021/12/19 05:01:25;;;;;;;1.20;0.90;;;;;;;14.06;29.26;97649.34;5013093;28;20050;-29
2021/12/19 05:14:03;;;;;;;1.23;0.85;;;;;;;14.03;29.42;97647.44;4954886;29;20106;-29
2021/12/19 05:15:26;;;;;;;1.55;0.85;;;;;;;13.97;29.78;97655.31;4916782;29;20532;-29
2021/12/19 05:17:54;;;;;;;0.98;0.80;;;;;;;14.02;29.93;97656.81;4919095;29;20068;-29
2021/12/19 05:20:24;;;;;;;1.42;0.85;;;;;;;13.98;29.54;97654.13;4935180;29;20505;-29
2021/12/19 05:22:52;;;;;;;1.52;0.75;;;;;;;13.98;29.56;97661.53;4935258;29;20383;-29
2021/12/19 05:25:18;;;;;;;1.67;1.02;;;;;;;13.96;29.45;97655.75;4935339;29;20034;-29
2021/12/19 05:27:49;;;;;;;1.52;0.88;;;;;;;13.96;29.51;97655.75;4935156;29;20395;-29
2021/12/19 05:30:15;;;;;;;2.83;1.02;;;;;;;13.93;29.42;97660.09;4935403;29;20107;-29
2021/12/19 05:32:46;;;;;;;1.30;0.80;;;;;;;13.98;29.45;97650.63;4935045;29;20451;-29
2021/12/19 05:35:15;;;;;;;2.08;1.02;;;;;;;13.95;29.82;97646.03;4935313;29;20031;-29
2021/12/19 05:45:55;;;;;;;2.00;1.02;;;;;;;14.01;29.08;97645.13;4986578;28;20136;-29
2021/12/19 05:48:21;;;;;;;1.40;0.88;;;;;;;13.98;29.15;97642.44;5034006;28;20041;-29
2021/12/19 05:50:46;;;;;;;2.13;0.70;;;;;;;14.02;29.19;97641.22;5032835;28;20079;-29
2021/12/19 05:53:12;;;;;;;1.23;0.90;;;;;;;13.99;29.03;97644.78;5034080;28;20033;-29
2021/12/19 05:55:39;;;;;;;1.35;0.90;;;;;;;13.93;29.36;97641.00;5033963;28;20032;-29
2021/12/19 05:58:05;;;;;;;1.92;0.85;;;;;;;13.89;29.18;97643.03;5033943;28;20166;-29
2021/12/19 06:00:32;;;;;;;1.15;0.82;;;;;;;13.86;29.21;97632.94;5033854;28;20041;-29
2021/12/19 06:02:58;;;;;;;1.45;1.02;;;;;;;13.98;29.22;97640.50;5034296;28;20060;-29
2021/12/19 06:05:24;;;;;;;1.13;0.80;;;;;;;14.00;28.93;97640.84;5034155;28;20036;-29
2021/12/19 06:07:50;;;;;;;1.83;0.85;;;;;;;13.96;29.37;97640.16;5033928;28;20026;-29
2021/12/19 06:10:15;;;;;;;1.50;0.80;;;;;;;13.99;29.02;97639.31;5033824;28;20025;-29
2021/12/19 06:12:41;;;;;;;2.67;0.93;;;;;;;13.97;29.21;97632.75;5033752;28;20025;-29
2021/12/19 06:15:09;;;;;;;2.05;0.93;;;;;;;14.00;29.17;97626.44;5033739;28;20053;-29
2021/12/19 06:17:36;;;;;;;1.15;0.90;;;;;;;13.95;29.14;97626.94;5033755;28;20021;-29
2021/12/19 06:20:03;;;;;;;1.50;0.90;;;;;;;13.95;29.39;97625.00;5033525;28;20025;-29
2021/12/19 06:22:29;;;;;;;2.15;0.82;;;;;;;14.00;29.20;97623.72;5033160;28;20026;-29
2021/12/19 06:24:54;;;;;;;1.25;0.80;;;;;;;13.93;28.97;97630.09;5033582;28;20022;-29
2021/12/19 06:27:20;;;;;;;1.67;0.90;;;;;;;13.96;28.88;97626.53;5032275;28;20108;-29
2021/12/19 06:29:45;;;;;;;1.48;0.90;;;;;;;13.93;28.93;97623.88;5033696;28;20023;-29
2021/12/19 06:32:11;;;;;;;2.08;1.20;;;;;;;13.91;29.34;97623.50;5033460;28;20087;-29
2021/12/19 06:34:36;;;;;;;2.40;1.20;;;;;;;13.93;29.43;97621.91;5033531;28;20103;-29
2021/12/19 06:37:07;;;;;;;2.22;1.23;;;;;;;13.90;29.18;97622.75;5033441;28;20071;-29
2021/12/19 06:39:33;;;;;;;1.70;1.20;;;;;;;13.93;29.40;97616.47;5033288;28;20113;-29
2021/12/19 06:41:58;;;;;;;4.70;1.30;;;;;;;13.91;29.21;97621.56;5029347;28;20431;-29
2021/12/19 06:44:25;;;;;;;2.58;1.95;;;;;;;13.91;29.53;97615.34;5014505;28;20034;-29
2021/12/19 06:46:50;;;;;;;3.42;1.63;;;;;;;13.87;29.48;97614.63;5014633;28;20021;-29
2021/12/19 06:49:15;;;;;;;5.07;2.63;;;;;;;13.91;29.28;97632.47;5031199;28;20060;-29
2021/12/19 06:51:41;;;;;;;7.32;3.38;;;;;;;13.92;29.57;97625.81;5029858;28;20025;-29
2021/12/19 06:54:07;;;;;;;6.40;3.22;;;;;;;13.93;29.52;97621.91;5031059;28;20053;-29
2021/12/19 06:56:32;;;;;;;7.05;3.20;;;;;;;13.91;29.64;97621.56;5031412;28;20065;-29
2021/12/19 06:58:57;;;;;;;5.18;3.00;;;;;;;13.89;29.59;97617.69;5028564;28;20156;-29
2021/12/19 07:01:23;;;;;;;4.10;2.53;;;;;;;13.92;29.43;97631.28;5011187;28;20041;-29
2021/12/19 07:03:49;;;;;;;5.78;2.60;;;;;;;13.87;29.29;97625.53;5011625;28;20170;-29
2021/12/19 07:06:14;;;;;;;4.82;2.28;;;;;;;13.90;29.36;97633.66;5011251;28;20025;-29
2021/12/19 07:08:39;;;;;;;5.80;2.90;;;;;;;13.92;29.60;97625.81;5011404;28;20520;-29
2021/12/19 07:11:05;;;;;;;5.05;2.25;;;;;;;13.92;29.79;97631.28;5011546;28;20025;-29
2021/12/19 07:13:31;;;;;;;4.80;2.47;;;;;;;13.92;29.71;97631.28;5011534;28;20472;-29
2021/12/19 07:15:57;;;;;;;3.88;2.50;;;;;;;13.90;30.00;97621.97;5011433;28;20098;-29
2021/12/19 07:18:23;;;;;;;5.18;2.50;;;;;;;13.90;29.59;97627.44;5011313;28;20472;-29
2021/12/19 07:20:48;;;;;;;4.22;2.45;;;;;;;13.88;29.67;97630.56;5010132;28;20503;-29
2021/12/19 07:23:18;;;;;;;5.05;2.38;;;;;;;13.87;29.71;97628.25;5011394;28;20072;-29
2021/12/19 07:25:43;;;;;;;5.55;2.75;;;;;;;13.90;29.86;97628.19;5011399;28;20036;-29
2021/12/19 07:28:10;;;;;;;4.25;2.20;;;;;;;13.92;29.56;97625.81;5011268;28;20026;-29
2021/12/19 07:30:37;;;;;;;3.53;2.42;;;;;;;13.91;29.90;97627.00;5011008;28;20097;-29
2021/12/19 07:33:07;;;;;;;4.38;2.30;;;;;;;13.92;29.99;97627.78;5011076;28;20026;-29
2021/12/19 07:35:37;;;;;;;5.43;2.60;;;;;;;13.91;29.78;97618.81;5017175;28;20021;-29
2021/12/19 07:38:08;;;;;;;4.25;2.20;;;;;;;13.90;29.70;97616.53;5034524;28;20109;-29
2021/12/19 07:40:36;;;;;;;5.85;2.67;;;;;;;13.95;30.08;97621.50;5032947;28;20242;-29
2021/12/19 07:43:08;;;;;;;3.53;2.25;;;;;;;13.90;29.91;97624.69;5034729;28;20029;-29
2021/12/19 07:45:34;;;;;;;3.85;2.13;;;;;;;13.93;29.88;97618.41;5034827;28;20033;-29
2021/12/19 07:47:59;;;;;;;3.65;1.98;;;;;;;13.88;29.98;97618.88;5034553;28;20117;-29
2021/12/19 07:50:26;;;;;;;6.38;2.95;;;;;;;13.87;30.50;97622.81;5034562;28;20100;-29
2021/12/19 07:52:53;;;;;;;5.32;2.60;;;;;;;13.91;30.11;97616.09;5034326;28;20021;-29
2021/12/19 07:55:18;;;;;;;4.78;2.50;;;;;;;13.89;30.36;97614.97;5034665;28;20029;-29
2021/12/19 07:57:44;;;;;;;6.60;2.85;;;;;;;13.89;30.18;97610.28;5034336;28;20031;-29
2021/12/19 08:00:12;;;;;;;4.22;2.70;;;;;;;13.86;30.35;97615.81;5034192;28;20049;-29
2021/12/19 08:02:38;;;;;;;4.50;2.85;;;;;;;13.85;30.30;97612.31;5034324;28;20117;-29
2021/12/19 08:05:04;;;;;;;4.32;2.55;;;;;;;13.81;30.64;97611.63;5032577;28;20030;-29
2021/12/19 08:07:30;;;;;;;5.00;2.78;;;;;;;13.81;30.61;97611.63;5034229;28;20026;-29
2021/12/19 08:10:14;;;;;;;6.90;2.63;;;;;;;13.84;30.80;97613.53;5034326;28;20040;-29
2021/12/19 08:12:40;;;;;;;6.50;2.50;;;;;;;13.82;30.84;97605.00;5034202;28;20029;-29
2021/12/19 08:15:07;;;;;;;4.05;2.40;;;;;;;13.90;30.67;97600.16;5033722;28;20056;-29
2021/12/19 08:17:33;;;;;;;4.95;2.78;;;;;;;13.89;30.60;97598.63;5033840;28;20115;-29
2021/12/19 08:19:59;;;;;;;4.68;2.58;;;;;;;13.79;30.74;97600.38;5034070;28;20048;-29
2021/12/19 08:22:27;;;;;;;5.75;2.50;;;;;;;13.88;30.80;97600.56;5033915;28;20033;-29
2021/12/19 08:24:52;;;;;;;4.00;2.78;;;;;;;13.83;30.84;97595.63;5033878;28;20025;-29
2021/12/19 08:27:18;;;;;;;3.67;2.22;;;;;;;13.87;31.03;97598.25;5033793;28;20023;-29
2021/12/19 08:29:44;;;;;;;4.22;2.38;;;;;;;13.93;30.86;97602.81;5032005;28;20033;-29
2021/12/19 08:32:10;;;;;;;4.43;2.33;;;;;;;13.96;30.79;97599.25;5032463;28;20391;-29
2021/12/19 08:34:36;;;;;;;3.25;2.28;;;;;;;13.93;30.55;97602.81;5033833;28;20021;-29
2021/12/19 08:37:02;;;;;;;5.90;2.53;;;;;;;13.91;30.75;97596.25;5018630;28;20426;-29
2021/12/19 08:39:30;;;;;;;6.47;2.78;;;;;;;13.94;30.66;97595.41;5013955;28;20030;-29
2021/12/19 08:41:56;;;;;;;6.47;2.53;;;;;;;13.95;30.39;97596.94;5012427;28;20480;-29
2021/12/19 08:44:21;;;;;;;4.13;2.30;;;;;;;14.00;30.66;97597.22;5013704;28;20100;-29
2021/12/19 08:46:47;;;;;;;3.92;2.50;;;;;;;13.99;30.64;97594.91;5013483;28;20029;-29
2021/12/19 08:49:13;;;;;;;5.20;2.63;;;;;;;13.98;30.35;97594.13;5013704;28;20480;-29
2021/12/19 08:51:39;;;;;;;4.80;2.80;;;;;;;13.93;30.31;97594.63;5013667;28;20053;-29
2021/12/19 08:54:06;;;;;;;6.13;2.60;;;;;;;13.94;30.25;97601.63;5013271;28;20100;-29
2021/12/19 08:56:32;;;;;;;6.13;3.25;;;;;;;13.95;29.90;97597.72;5013452;28;20556;-29
2021/12/19 08:58:58;;;;;;;4.90;3.25;;;;;;;14.00;29.98;97585.53;5013607;28;20100;-29
2021/12/19 09:01:23;;;;;;;6.28;3.15;;;;;;;14.00;30.06;97589.03;5013472;28;20056;-29
2021/12/19 09:03:49;;;;;;;7.40;3.00;;;;;;;13.99;29.94;97587.50;5013577;28;20022;-29
2021/12/19 09:06:14;;;;;;;4.75;2.53;;;;;;;13.86;29.81;97577.63;5013070;28;20476;-29
2021/12/19 09:08:40;;;;;;;5.75;2.40;;;;;;;13.92;29.71;97584.91;5013279;28;20477;-29
2021/12/19 09:11:06;;;;;;;5.95;2.97;;;;;;;14.01;29.87;97578.88;5013158;28;20084;-29
2021/12/19 09:13:33;;;;;;;6.93;3.05;;;;;;;13.99;29.84;97587.50;5013198;28;20109;-29
2021/12/19 09:15:59;;;;;;;4.30;2.85;;;;;;;13.96;29.85;97582.91;5013209;28;20034;-29
2021/12/19 09:18:25;;;;;;;5.40;2.50;;;;;;;13.98;29.72;97574.28;5012774;28;20018;-29
2021/12/19 09:20:51;;;;;;;4.93;2.70;;;;;;;14.02;29.65;97575.75;5012991;28;20396;-29
2021/12/19 09:23:17;;;;;;;4.82;2.65;;;;;;;13.99;29.79;97565.66;5013030;28;20022;-29
2021/12/19 09:25:43;;;;;;;5.32;2.80;;;;;;;13.96;29.88;97563.81;5013040;28;20029;-29
2021/12/19 09:28:09;;;;;;;5.40;2.75;;;;;;;13.85;30.25;97565.94;5013309;28;20044;-29
2021/12/19 09:30:35;;;;;;;5.50;2.53;;;;;;;13.95;29.95;97569.69;5012648;28;20045;-29
2021/12/19 09:33:01;;;;;;;4.75;2.67;;;;;;;13.99;30.09;97554.75;5012932;28;20032;-29
2021/12/19 09:35:26;;;;;;;8.45;2.92;;;;;;;13.97;29.59;97554.41;5015102;28;20384;-29
2021/12/19 09:37:52;;;;;;;5.40;2.97;;;;;;;13.96;29.74;97558.34;5031118;28;20025;-29
2021/12/19 09:40:22;;;;;;;6.80;3.00;;;;;;;13.94;29.61;97549.06;5030670;28;20048;-29
2021/12/19 09:42:51;;;;;;;6.10;3.13;;;;;;;14.07;29.58;97554.63;5032358;28;20045;-29
2021/12/19 09:45:18;;;;;;;5.68;3.00;;;;;;;14.09;29.68;97557.72;5032368;28;20040;-29
2021/12/19 09:47:44;;;;;;;5.22;2.65;;;;;;;14.11;29.88;97545.16;5032165;28;20109;-29
2021/12/19 09:50:10;;;;;;;5.45;3.05;;;;;;;13.92;29.75;97551.44;5032216;28;20108;-29
2021/12/19 09:52:36;;;;;;;7.80;3.47;;;;;;;13.71;30.52;97549.91;5031437;28;20025;-29
2021/12/19 09:55:04;;;;;;;5.25;3.03;;;;;;;13.70;30.60;97558.50;5032298;28;20029;-29
2021/12/19 09:57:29;;;;;;;5.50;2.90;;;;;;;13.46;31.24;97552.34;5031395;28;20030;-29
2021/12/19 09:59:55;;;;;;;6.57;3.15;;;;;;;13.58;31.38;97549.00;5031953;28;20060;-29
2021/12/19 10:02:21;;;;;;;6.63;3.30;;;;;;;13.78;31.33;97549.75;5032236;28;20040;-29
2021/12/19 10:04:47;;;;;;;4.47;2.75;;;;;;;13.69;31.06;97557.72;5031791;28;20033;-29
2021/12/19 10:07:29;;;;;;;4.07;2.53;;;;;;;14.01;30.64;97552.38;5032085;28;20032;-29
2021/12/19 10:10:02;;;;;;;4.63;2.72;;;;;;;14.09;30.65;97544.84;5031892;28;20112;-29
2021/12/19 10:12:48;;;;;;;5.35;3.00;;;;;;;13.80;31.57;97539.19;5031838;28;20068;-29
2021/12/19 10:15:19;;;;;;;5.13;2.65;;;;;;;13.79;31.77;97536.88;5031574;28;20048;-29
2021/12/19 10:17:46;;;;;;;4.35;2.72;;;;;;;13.91;31.36;97541.69;5031425;28;20057;-29
2021/12/19 10:20:15;;;;;;;4.53;2.90;;;;;;;13.77;32.37;97540.03;5031918;28;20029;-29
2021/12/19 10:22:43;;;;;;;6.45;3.10;;;;;;;13.92;31.68;97538.56;5031791;28;20493;-29
2021/12/19 10:25:27;;;;;;;5.03;2.67;;;;;;;13.96;31.72;97539.25;5031601;28;20034;-29
2021/12/19 10:27:57;;;;;;;4.35;2.70;;;;;;;14.13;31.38;97534.59;5031676;28;20083;-29
2021/12/19 10:30:28;;;;;;;6.07;2.95;;;;;;;14.17;31.32;97529.06;5031392;28;20375;-29
2021/12/19 10:33:24;;;;;;;6.47;2.90;;;;;;;13.80;32.04;97531.00;5031584;28;20419;-29
2021/12/19 10:35:56;;;;;;;5.80;2.90;;;;;;;13.88;32.43;97528.91;5026091;28;20061;-29
2021/12/19 10:38:22;;;;;;;5.50;2.47;;;;;;;14.11;31.57;97515.16;5027635;28;20887;-29
2021/12/19 10:41:01;;;;;;;5.20;2.75;;;;;;;14.21;31.37;97522.38;5029411;28;20030;-29
2021/12/19 10:43:31;;;;;;;5.38;3.05;;;;;;;14.02;31.64;97515.75;5031361;28;20036;-29
2021/12/19 10:45:59;;;;;;;5.05;2.25;;;;;;;14.02;31.96;97509.50;5030657;28;20037;-29
2021/12/19 10:48:32;;;;;;;5.15;3.03;;;;;;;14.14;31.89;97500.69;5031369;28;20025;-29
2021/12/19 10:51:12;;;;;;;4.93;2.75;;;;;;;14.15;31.70;97507.66;5031659;28;20104;-29
2021/12/19 10:53:37;;;;;;;4.70;3.00;;;;;;;14.15;31.77;97507.66;5031106;28;20091;-29
2021/12/19 10:56:16;;;;;;;6.18;2.72;;;;;;;14.13;31.83;97501.88;5031440;28;20438;-29
2021/12/19 10:58:45;;;;;;;4.78;2.40;;;;;;;14.16;32.20;97498.31;5031313;28;20033;-29
2021/12/19 11:01:17;;;;;;;5.28;2.60;;;;;;;14.20;32.07;97509.13;5030319;28;20068;-29
2021/12/19 11:03:43;;;;;;;3.85;2.50;;;;;;;14.10;32.18;97499.22;5031273;28;20018;-29
2021/12/19 11:06:36;;;;;;;4.55;2.50;;;;;;;14.03;32.41;97494.69;5030997;28;20023;-29
2021/12/19 11:09:16;;;;;;;4.40;2.72;;;;;;;14.19;32.22;97488.50;5027095;28;20057;-29
2021/12/19 11:11:48;;;;;;;6.50;3.35;;;;;;;14.11;32.53;97478.91;5034557;28;20033;-29
2021/12/19 11:14:32;;;;;;;4.38;2.45;;;;;;;13.99;32.53;97489.31;5034771;28;20057;-29
2021/12/19 11:17:04;;;;;;;4.72;2.90;;;;;;;14.11;32.61;97481.66;5035068;28;20025;-29
2021/12/19 11:19:30;;;;;;;4.93;2.50;;;;;;;13.93;32.95;97465.69;5035204;28;20357;-29
2021/12/19 11:21:56;;;;;;;4.90;2.95;;;;;;;14.09;32.83;97475.88;5035158;28;20737;-29
2021/12/19 11:24:23;;;;;;;6.32;3.67;;;;;;;13.99;32.85;97470.22;5034976;28;20041;-29
2021/12/19 11:26:52;;;;;;;8.95;3.33;;;;;;;13.85;33.50;97451.44;5035044;28;20033;-29
2021/12/19 11:29:18;;;;;;;8.75;4.03;;;;;;;13.83;33.49;97455.78;5034710;28;20480;-29
2021/12/19 11:31:50;;;;;;;7.70;3.92;;;;;;;13.86;33.07;97449.47;5035006;28;20037;-29
2021/12/19 11:34:53;;;;;;;6.03;3.88;;;;;;;14.13;32.89;97441.09;5034915;28;20022;-29
2021/12/19 11:37:23;;;;;;;7.10;3.60;;;;;;;14.13;32.69;97454.72;5034840;28;20057;-29
2021/12/19 11:39:51;;;;;;;5.95;3.60;;;;;;;14.02;32.88;97433.91;5034850;28;20033;-29
2021/12/19 11:42:32;;;;;;;7.95;3.60;;;;;;;14.25;32.93;97434.94;5033142;28;20022;-29
2021/12/19 11:47:56;;;;;;;4.78;3.03;;;;;;;14.25;32.83;97429.50;5034567;28;20032;-29
2021/12/19 11:50:29;;;;;;;6.28;3.40;;;;;;;14.29;32.79;97433.69;5034661;28;20879;-29
2021/12/19 11:52:59;;;;;;;;;;;;;;;14.29;32.84;97422.78;5034629;28;20043;-29
2021/12/19 11:55:29;;;;;;;6.32;3.28;;;;;;;14.32;32.78;97423.88;5034676;28;20011;-29
2021/12/19 11:58:12;;;;;;;6.32;3.33;;;;;;;14.31;32.63;97423.13;5034700;28;20426;-29
2021/12/19 12:00:51;;;;;;;6.00;3.35;;;;;;;14.37;32.58;97417.91;5034288;28;20049;-29
2021/12/19 12:03:18;;;;;;;7.68;3.88;;;;;;;14.36;32.64;97416.34;5034369;28;20033;-29
2021/12/19 12:06:21;;;;;;;5.28;3.13;;;;;;;14.35;32.75;97415.59;5034216;28;20489;-29
2021/12/19 12:09:06;;;;;;;5.68;3.28;;;;;;;14.41;32.73;97412.41;5034233;28;20564;-29
2021/12/19 12:11:33;;;;;;;6.45;3.53;;;;;;;14.34;32.78;97399.66;5034263;28;20112;-29
2021/12/19 12:14:29;;;;;;;8.23;4.00;;;;;;;14.32;32.92;97405.56;5034105;28;20025;-29
2021/12/19 12:17:02;;;;;;;7.10;4.43;;;;;;;14.36;33.02;97391.81;5033766;28;20022;-29
2021/12/19 12:19:57;;;;;;;6.88;4.00;;;;;;;14.38;32.90;97384.72;5033680;28;20024;-29
2021/12/19 12:25:11;;;;;;;8.82;5.07;;;;;;;14.44;34.03;97390.47;5033168;28;20025;-30
2021/12/19 12:27:43;;;;;;;10.20;5.03;;;;;;;15.44;32.53;97391.28;5020500;28;20022;-30
2021/12/19 12:30:13;;;;;;;9.35;5.03;;;;;;;15.82;32.04;97383.88;5013958;28;20018;-30
2021/12/19 12:32:39;;;;;;;10.27;5.95;;;;;;;15.80;31.82;97380.09;5014600;28;20033;-30
2021/12/19 12:35:05;;;;;;;6.53;4.70;;;;;;;16.10;31.53;97378.75;5013717;28;20037;-30
2021/12/19 12:37:32;;;;;;;7.35;4.95;;;;;;;16.21;31.34;97370.19;5014092;28;20025;-30
2021/12/19 12:40:23;;;;;;;9.63;5.60;;;;;;;16.14;31.62;97373.94;5028622;28;20487;-30
2021/12/19 12:43:00;;;;;;;8.75;4.88;;;;;;;16.19;31.22;97375.34;5032675;28;20033;-30
2021/12/19 12:45:28;;;;;;;6.95;4.50;;;;;;;16.30;31.15;97371.06;5033849;28;20057;-30